METAR|ÜBERSETZT|TAF
EDHK 270920Z 08006KT 030V120 9999 SCT019 19/15 Q1022
Login|Impressum|Kontakt



Anmeldung für Mitglieder

Bitte melden Sie sich an um den internen Bereich zu nutzen.
Benutzername:
Password: